Huvudsida
METAR-TAF:

METAR-TAF

Flygplatser :

Sarajevos internationella flygplats

Sarajevo, Bosnien och Hercegovina

latitud: 43-49N, longitud: 018-20E, höjd: 511 m

Aktuellt väderrapport

Denna rapport gjordes för 38 minuter sedan, klockan 19:00 UTC
Vind 2 kt varierande vindriktning
Temperatur 1°C
Fuktighet 100%
Tryck 1020 hPa
Sikt 10 km eller mer
Spridda moln på en höjd av 2500 ft

METAR: LQSA 281900Z VRB02KT 9999 SCT025 01/01 Q1020 NOSIG

Tid: 20:38 (19:38 UTC)

Väderprognos

Denna rapport gjordes för 2 timmar och 38 minuter sedan, klockan 17:00 UTC
Prognos gäller från 28 kl. 18 UTC till 29 kl. 18 UTC
Vind 6 kt från nord/nordväst
Sikt 10 km eller mer
Spridda moln på en höjd av 5000 ft
Sannolikhet 30%
från 29 kl. 03 UTC till 29 kl. 07 UTC
Sikt: 3000 m
fuktdis
Temporärt
från 29 kl. 14 UTC till 29 kl. 18 UTC
Vind 10 kt från syd/sydost

TAF: LQSA 281700Z 2818/2918 33006KT 9999 SCT050 TX12/2913Z TNM06/2905Z PROB30 2903/2907 3000 BR TEMPO 2914/2918 15010KT

Aktuella väderrapporter och prognoser från 4000 flygplatser (METAR- och TAF-rapporter).

De tillgängliga stationerna syns som gula och röda prickar på kartan.

För musen över prickarna för att se namnen på stationerna.

Klicka sedan för att få väderrapporter och prognoser.

För att ändra kartan: Klicka på de gröna knapparna med ett svart kors på för att zooma in; den gröna knappen med ett streck på för att zooma ut; eller på de gröna pilarna för angränsande kartor.


METAR-TAF: